Time;durP1;ratioP1;P1;durP2;ratioP2;P2;SDS_P1;SDS_P2;PMS_P1;PMS_P2;Temp;Humidity;BMP_temperature;BMP_pressure;BME280_temperature;BME280_humidity;BME280_pressure;Samples;Min_cycle;Max_cycle;Signal;HPM_P1;HPM_P2
2022/06/30 00:01:38;;;;;;;8.20;7.23;;;28.20;53.60;;;;;;6112929;23;20153;-84
2022/06/30 00:04:04;;;;;;;8.40;7.67;;;28.20;53.50;;;;;;6112146;23;20154;-83
2022/06/30 00:06:30;;;;;;;8.90;6.53;;;28.20;53.60;;;;;;6113496;23;20449;-84
2022/06/30 00:08:56;;;;;;;7.13;6.43;;;28.20;53.70;;;;;;6112289;23;20160;-85
2022/06/30 00:11:22;;;;;;;7.00;6.40;;;28.20;53.70;;;;;;6111937;23;20593;-85
2022/06/30 00:13:48;;;;;;;6.87;6.27;;;28.20;53.70;;;;;;6111402;23;20421;-85
2022/06/30 00:16:14;;;;;;;6.37;5.77;;;28.20;53.80;;;;;;6112072;23;20173;-85
2022/06/30 00:18:40;;;;;;;6.43;5.83;;;28.20;53.80;;;;;;6112196;23;20860;-84
2022/06/30 00:21:05;;;;;;;6.87;6.27;;;28.20;53.70;;;;;;6111511;23;20185;-84
2022/06/30 00:23:31;;;;;;;8.70;6.33;;;28.20;53.70;;;;;;6110619;23;20380;-86
2022/06/30 00:25:57;;;;;;;7.73;7.03;;;28.20;53.80;;;;;;6112395;23;20578;-85
2022/06/30 00:28:23;;;;;;;7.40;6.40;;;28.20;54.10;;;;;;6111160;23;20222;-86
2022/06/30 00:30:50;;;;;;;7.30;6.70;;;28.20;53.80;;;;;;6110979;23;20221;-85
2022/06/30 00:33:17;;;;;;;7.70;6.57;;;28.20;53.60;;;;;;6112363;23;20381;-85
2022/06/30 00:35:43;;;;;;;8.30;6.53;;;28.20;53.60;;;;;;6110840;23;20413;-85
2022/06/30 00:38:09;;;;;;;7.20;6.50;;;28.20;53.80;;;;;;6111459;23;20456;-84
2022/06/30 00:40:42;;;;;;;7.10;6.27;;;28.20;53.90;;;;;;6112811;23;20366;-84
2022/06/30 00:43:08;;;;;;;8.20;6.33;;;28.20;53.90;;;;;;6112312;23;20359;-84
2022/06/30 00:45:41;;;;;;;6.77;6.13;;;28.20;53.70;;;;;;6113230;23;20402;-84
2022/06/30 00:48:07;;;;;;;7.03;6.33;;;28.20;53.70;;;;;;6111571;23;20393;-84
2022/06/30 00:50:33;;;;;;;6.17;5.67;;;28.20;53.80;;;;;;6110979;23;20386;-84
2022/06/30 00:53:02;;;;;;;8.17;7.47;;;28.20;54.10;;;;;;6110459;23;20461;-84
2022/06/30 00:55:29;;;;;;;8.47;7.60;;;28.20;54.20;;;;;;6111164;23;20560;-84
2022/06/30 00:57:56;;;;;;;7.60;6.90;;;28.30;54.30;;;;;;6112392;23;20420;-85
2022/06/30 01:00:23;;;;;;;8.90;8.10;;;28.30;54.70;;;;;;6112577;23;20374;-85
2022/06/30 01:02:51;;;;;;;8.07;7.20;;;28.20;54.60;;;;;;6112018;23;20370;-85
2022/06/30 01:05:17;;;;;;;7.93;7.20;;;28.20;54.60;;;;;;6112105;23;20381;-85
2022/06/30 01:07:45;;;;;;;8.33;7.20;;;28.20;54.30;;;;;;6112838;23;20374;-84
2022/06/30 01:12:56;;;;;;;7.07;6.47;;;28.30;54.50;;;;;;6112821;23;20360;-84
2022/06/30 01:15:22;;;;;;;7.63;6.80;;;28.20;54.30;;;;;;6111947;23;20381;-84
2022/06/30 01:17:49;;;;;;;7.80;7.07;;;28.20;54.60;;;;;;6110355;23;20425;-84
2022/06/30 01:20:16;;;;;;;7.90;7.20;;;28.20;54.60;;;;;;6110892;23;20381;-84
2022/06/30 01:22:42;;;;;;;13.33;7.50;;;28.20;54.50;;;;;;6110407;23;20392;-84
2022/06/30 01:25:10;;;;;;;8.40;7.50;;;28.20;54.50;;;;;;6110289;23;20390;-84
2022/06/30 01:27:36;;;;;;;7.07;6.47;;;28.20;54.60;;;;;;6110314;23;20382;-84
2022/06/30 01:30:03;;;;;;;8.43;7.53;;;28.20;54.70;;;;;;6110408;23;20393;-85
2022/06/30 01:32:29;;;;;;;7.83;7.13;;;28.20;54.70;;;;;;6110116;23;20480;-85
2022/06/30 01:34:56;;;;;;;8.53;7.73;;;28.20;54.50;;;;;;6110480;23;20427;-85
2022/06/30 01:37:23;;;;;;;6.43;5.83;;;28.20;54.40;;;;;;6110591;23;20432;-85
2022/06/30 01:39:49;;;;;;;7.10;6.50;;;28.20;54.20;;;;;;6110430;23;20382;-85
2022/06/30 01:42:15;;;;;;;6.87;6.23;;;28.20;54.40;;;;;;6110128;23;20833;-85
2022/06/30 01:44:40;;;;;;;7.87;7.07;;;28.20;54.50;;;;;;6109951;23;20150;-85
2022/06/30 01:47:08;;;;;;;7.60;6.90;;;28.20;54.50;;;;;;6111924;23;20164;-85
2022/06/30 01:49:33;;;;;;;7.87;7.03;;;28.20;54.60;;;;;;6111482;23;20150;-85
2022/06/30 01:51:59;;;;;;;7.43;6.90;;;28.20;54.40;;;;;;6112550;23;20409;-85
2022/06/30 01:54:25;;;;;;;7.40;6.70;;;28.20;54.50;;;;;;6111162;23;20166;-85
2022/06/30 01:56:51;;;;;;;6.83;6.23;;;28.20;54.50;;;;;;6111721;23;20270;-85
2022/06/30 01:59:16;;;;;;;7.00;6.30;;;28.20;54.60;;;;;;6115160;23;20154;-85
2022/06/30 02:01:42;;;;;;;7.67;6.90;;;28.20;54.60;;;;;;6112297;23;20157;-84
2022/06/30 02:06:52;;;;;;;7.53;6.87;;;28.20;54.60;;;;;;6115738;23;20149;-84
2022/06/30 02:09:18;;;;;;;6.97;6.27;;;28.20;54.60;;;;;;6112764;23;20374;-84
2022/06/30 02:11:44;;;;;;;6.10;5.50;;;28.20;54.70;;;;;;6115041;23;20158;-83
2022/06/30 02:14:10;;;;;;;7.53;6.83;;;28.20;54.70;;;;;;6116036;23;20430;-84
2022/06/30 02:16:36;;;;;;;6.57;5.97;;;28.20;54.50;;;;;;6110558;23;20265;-85
2022/06/30 02:19:06;;;;;;;10.30;6.50;;;28.20;54.70;;;;;;6110081;23;20386;-85
2022/06/30 02:21:32;;;;;;;6.70;6.10;;;28.20;54.60;;;;;;6109673;23;20154;-85
2022/06/30 02:23:57;;;;;;;6.63;6.03;;;28.20;54.60;;;;;;6110543;23;20770;-85
2022/06/30 02:26:23;;;;;;;7.03;6.40;;;28.20;54.60;;;;;;6110761;23;20165;-84
2022/06/30 02:28:49;;;;;;;6.30;5.67;;;28.20;54.60;;;;;;6111740;23;20273;-84
2022/06/30 02:31:15;;;;;;;7.20;6.23;;;28.20;54.60;;;;;;6110242;23;20221;-85
2022/06/30 02:33:42;;;;;;;6.50;5.90;;;28.20;54.70;;;;;;6114366;23;20228;-84
2022/06/30 02:36:07;;;;;;;6.30;5.80;;;28.20;54.60;;;;;;6114793;23;20381;-83
2022/06/30 02:38:34;;;;;;;7.43;6.73;;;28.20;54.60;;;;;;6140134;23;20376;-85
2022/06/30 02:41:00;;;;;;;8.13;6.53;;;28.20;54.60;;;;;;6114281;23;20409;-84
2022/06/30 02:43:26;;;;;;;8.17;7.33;;;28.20;54.60;;;;;;6114586;23;20457;-83
2022/06/30 02:45:51;;;;;;;7.27;5.80;;;28.20;54.60;;;;;;6113916;23;20248;-84
2022/06/30 02:48:18;;;;;;;5.90;5.40;;;28.20;54.70;;;;;;6115068;23;20157;-83
2022/06/30 02:50:45;;;;;;;6.33;5.80;;;28.20;54.60;;;;;;6114992;23;20161;-84
2022/06/30 02:53:11;;;;;;;7.57;6.03;;;28.20;54.70;;;;;;6115210;23;20385;-84
2022/06/30 02:55:37;;;;;;;7.40;6.70;;;28.20;54.70;;;;;;6141336;23;20463;-85
2022/06/30 02:58:03;;;;;;;6.53;5.93;;;28.10;54.60;;;;;;6140563;23;20413;-85
2022/06/30 03:00:29;;;;;;;6.97;6.37;;;28.20;55.20;;;;;;6140624;23;20859;-85
2022/06/30 03:02:57;;;;;;;6.60;6.00;;;28.20;54.60;;;;;;6114627;23;20500;-86
2022/06/30 03:05:23;;;;;;;7.33;6.73;;;28.10;54.50;;;;;;6140408;23;20393;-85
2022/06/30 03:07:49;;;;;;;6.77;6.00;;;28.20;54.60;;;;;;6114612;23;20388;-85
2022/06/30 03:10:15;;;;;;;9.60;6.37;;;28.10;54.50;;;;;;6114234;23;20385;-85
2022/06/30 03:12:41;;;;;;;6.80;6.20;;;28.10;54.50;;;;;;6114903;23;20404;-85
2022/06/30 03:15:09;;;;;;;6.50;5.90;;;28.20;54.60;;;;;;6114369;23;20385;-85
2022/06/30 03:17:37;;;;;;;6.50;5.90;;;28.10;54.60;;;;;;6140378;23;20224;-85
2022/06/30 03:20:04;;;;;;;6.13;5.60;;;28.10;54.70;;;;;;6114376;23;20432;-85
2022/06/30 03:22:29;;;;;;;6.50;5.90;;;28.10;55.20;;;;;;6113874;23;20384;-85
2022/06/30 03:24:58;;;;;;;5.40;4.90;;;28.10;54.60;;;;;;6113673;23;20903;-85
2022/06/30 03:27:26;;;;;;;7.03;6.43;;;28.10;54.60;;;;;;6113861;23;20264;-86
2022/06/30 03:29:52;;;;;;;6.50;6.00;;;28.10;54.60;;;;;;6139966;23;20400;-86
2022/06/30 03:32:17;;;;;;;6.90;6.20;;;28.10;54.70;;;;;;6114439;23;20773;-86
2022/06/30 03:34:43;;;;;;;6.23;5.73;;;28.10;54.70;;;;;;6109188;23;20229;-85
2022/06/30 03:37:09;;;;;;;6.50;5.70;;;28.10;54.60;;;;;;6109203;23;20185;-84
2022/06/30 03:39:35;;;;;;;8.30;6.20;;;28.10;54.60;;;;;;6108532;23;20158;-86
2022/06/30 03:42:00;;;;;;;6.03;5.53;;;28.10;54.60;;;;;;6108327;23;20157;-85
2022/06/30 03:44:26;;;;;;;6.33;5.77;;;28.10;54.70;;;;;;6110216;23;20173;-84
2022/06/30 03:46:53;;;;;;;6.37;5.60;;;28.10;54.70;;;;;;6109868;23;20162;-84
2022/06/30 03:49:19;;;;;;;6.27;5.67;;;28.10;54.70;;;;;;6108832;23;20420;-84
2022/06/30 03:51:45;;;;;;;6.43;5.80;;;28.10;54.60;;;;;;6108729;23;20165;-84
2022/06/30 03:54:10;;;;;;;6.17;5.60;;;28.10;54.60;;;;;;6108626;23;20153;-85
2022/06/30 03:56:36;;;;;;;5.13;4.63;;;28.10;54.60;;;;;;6109676;23;20178;-85
2022/06/30 03:59:02;;;;;;;5.37;4.97;;;28.10;54.60;;;;;;6110018;23;20142;-85
2022/06/30 04:01:27;;;;;;;5.53;5.03;;;28.10;54.60;;;;;;6108534;23;20237;-85
2022/06/30 04:03:53;;;;;;;5.23;4.43;;;28.10;54.60;;;;;;6108260;23;20158;-85
2022/06/30 04:06:19;;;;;;;5.33;4.83;;;28.10;54.50;;;;;;6109136;23;20218;-85
2022/06/30 04:08:45;;;;;;;5.13;4.63;;;28.10;54.40;;;;;;6110441;23;20150;-86
2022/06/30 04:11:10;;;;;;;5.43;4.87;;;28.10;54.40;;;;;;6110629;23;20150;-86
2022/06/30 04:13:36;;;;;;;5.80;5.30;;;28.10;54.40;;;;;;6109038;23;20205;-86
2022/06/30 04:16:03;;;;;;;5.00;4.53;;;28.10;54.40;;;;;;6110719;23;20154;-85
2022/06/30 04:18:29;;;;;;;6.67;6.07;;;28.10;54.90;;;;;;6108960;23;20425;-84
2022/06/30 04:20:55;;;;;;;5.50;4.97;;;28.10;54.30;;;;;;6108942;23;20413;-84
2022/06/30 04:23:20;;;;;;;6.13;5.63;;;28.10;54.30;;;;;;6109140;23;20161;-84
2022/06/30 04:25:46;;;;;;;6.90;5.60;;;28.10;54.30;;;;;;6110465;23;20157;-87
2022/06/30 04:28:12;;;;;;;5.13;4.73;;;28.10;54.40;;;;;;6111050;23;20206;-85
2022/06/30 04:33:22;;;;;;;6.03;5.50;;;28.10;54.40;;;;;;6111329;23;20170;-83
2022/06/30 04:35:50;;;;;;;6.23;5.63;;;28.10;54.40;;;;;;6140263;23;20385;-85
2022/06/30 04:38:16;;;;;;;5.53;5.03;;;28.10;54.40;;;;;;6140170;23;20420;-85
2022/06/30 04:43:27;;;;;;;7.17;6.47;;;28.10;54.40;;;;;;6140354;23;20140;-85
2022/06/30 04:45:52;;;;;;;6.53;5.63;;;28.10;54.40;;;;;;6141662;23;20376;-85
2022/06/30 04:48:19;;;;;;;6.00;5.43;;;28.10;54.30;;;;;;6141995;23;20156;-85
2022/06/30 04:50:46;;;;;;;6.07;5.47;;;28.10;54.40;;;;;;6119762;23;20179;-85
2022/06/30 04:53:15;;;;;;;6.73;6.10;;;28.10;54.40;;;;;;6120038;23;20765;-85
2022/06/30 04:55:42;;;;;;;6.77;5.83;;;28.10;54.40;;;;;;6116885;23;20418;-85
2022/06/30 04:58:08;;;;;;;6.73;5.37;;;28.10;54.40;;;;;;6146090;23;20444;-84
2022/06/30 05:00:34;;;;;;;7.23;5.80;;;28.10;54.90;;;;;;6144523;23;20373;-84
2022/06/30 05:03:00;;;;;;;6.13;5.63;;;28.10;54.30;;;;;;6142186;23;20149;-83
2022/06/30 05:05:28;;;;;;;6.37;5.33;;;28.10;54.20;;;;;;6120557;23;20176;-85
2022/06/30 05:07:54;;;;;;;5.60;5.10;;;28.10;54.10;;;;;;6118993;23;20160;-85
2022/06/30 05:10:20;;;;;;;5.27;4.87;;;28.10;54.10;;;;;;6116953;23;20388;-84
2022/06/30 05:12:46;;;;;;;9.03;5.80;;;28.10;54.00;;;;;;6142939;23;20149;-85
2022/06/30 05:15:11;;;;;;;6.27;5.63;;;28.10;54.00;;;;;;6141760;23;20149;-85
2022/06/30 05:17:42;;;;;;;5.73;4.97;;;28.10;53.90;;;;;;6141305;23;20172;-85
2022/06/30 05:20:09;;;;;;;6.43;5.83;;;28.20;54.10;;;;;;6115823;23;20180;-86
2022/06/30 05:22:34;;;;;;;7.00;6.03;;;28.20;54.00;;;;;;6115801;23;20377;-85
2022/06/30 05:27:48;;;;;;;6.97;6.27;;;28.20;53.90;;;;;;6141250;23;20144;-83
2022/06/30 05:30:15;;;;;;;11.53;6.57;;;28.20;53.90;;;;;;6141566;23;20436;-84
2022/06/30 05:32:41;;;;;;;7.80;7.10;;;28.20;53.90;;;;;;6141619;23;20392;-83
2022/06/30 05:35:07;;;;;;;7.43;6.73;;;28.20;54.10;;;;;;6110728;23;20410;-84
2022/06/30 05:37:33;;;;;;;6.77;6.17;;;28.20;54.30;;;;;;6110761;23;20188;-84
2022/06/30 05:39:59;;;;;;;7.47;6.73;;;28.20;54.20;;;;;;6111046;23;20390;-84
2022/06/30 05:42:24;;;;;;;8.20;6.77;;;28.20;55.10;;;;;;6112095;23;20156;-84
2022/06/30 05:44:50;;;;;;;7.47;6.33;;;28.20;54.60;;;;;;6110341;23;20150;-84
2022/06/30 05:47:16;;;;;;;11.07;6.87;;;28.20;54.40;;;;;;6110160;23;20165;-84
2022/06/30 05:49:42;;;;;;;7.10;6.40;;;28.20;54.60;;;;;;6110596;23;20157;-84
2022/06/30 05:52:08;;;;;;;8.10;7.40;;;28.20;54.70;;;;;;6111134;23;20181;-84
2022/06/30 05:54:33;;;;;;;8.10;7.40;;;28.20;54.60;;;;;;6110415;23;20401;-84
2022/06/30 05:56:59;;;;;;;8.57;6.10;;;28.20;54.80;;;;;;6111060;23;20215;-84
2022/06/30 05:59:26;;;;;;;6.90;6.30;;;28.20;54.90;;;;;;6110828;23;20153;-84
2022/06/30 06:01:51;;;;;;;6.50;5.90;;;28.20;54.70;;;;;;6110288;23;20185;-84
2022/06/30 06:04:17;;;;;;;9.43;6.40;;;28.20;54.90;;;;;;6109674;23;20907;-84
2022/06/30 06:06:43;;;;;;;7.63;6.93;;;28.20;54.80;;;;;;6109756;23;20555;-83
2022/06/30 06:09:09;;;;;;;6.47;5.87;;;28.20;54.80;;;;;;6110551;23;20221;-83
2022/06/30 06:11:36;;;;;;;7.27;6.20;;;28.20;55.00;;;;;;6110814;23;20182;-83
2022/06/30 06:14:03;;;;;;;7.27;6.67;;;28.20;55.10;;;;;;6111625;23;20146;-85
2022/06/30 06:16:33;;;;;;;6.43;5.87;;;28.20;55.30;;;;;;6109758;23;20533;-85
2022/06/30 06:18:59;;;;;;;8.63;6.57;;;28.20;55.30;;;;;;6110626;23;20390;-84
2022/06/30 06:21:26;;;;;;;7.37;6.77;;;28.10;55.30;;;;;;6111519;23;20393;-85
2022/06/30 06:23:53;;;;;;;7.40;6.80;;;28.10;55.30;;;;;;6111297;23;20142;-85
2022/06/30 06:26:21;;;;;;;8.20;7.30;;;28.10;55.30;;;;;;6111318;23;20453;-85
2022/06/30 06:29:06;;;;;;;7.47;6.70;;;28.10;55.30;;;;;;6110143;23;20381;-85
2022/06/30 06:31:33;;;;;;;7.83;7.13;;;28.10;55.30;;;;;;6110256;23;20386;-84
2022/06/30 06:34:02;;;;;;;6.87;6.17;;;28.10;55.50;;;;;;6114244;23;20405;-83
2022/06/30 06:36:28;;;;;;;7.70;6.90;;;28.10;55.30;;;;;;6115889;23;20720;-83
2022/06/30 06:38:54;;;;;;;7.27;6.33;;;28.10;55.30;;;;;;6116174;23;20469;-84
2022/06/30 06:41:21;;;;;;;10.70;7.63;;;28.10;55.00;;;;;;6116644;23;20386;-83
2022/06/30 06:43:51;;;;;;;7.07;6.40;;;28.10;55.50;;;;;;6116681;23;20137;-82
2022/06/30 06:46:26;;;;;;;7.07;6.47;;;28.10;55.70;;;;;;6118115;23;20378;-83
2022/06/30 06:48:59;;;;;;;10.80;7.23;;;28.10;55.40;;;;;;6118158;23;20381;-83
2022/06/30 06:58:32;;;;;;;7.20;6.60;;;28.10;55.50;;;;;;6021432;23;20428;-82
2022/06/30 07:08:17;;;;;;;7.03;6.40;;;28.10;55.20;;;;;;5953264;23;20387;-81
2022/06/30 07:10:56;;;;;;;6.13;5.40;;;28.10;55.70;;;;;;5995452;23;20384;-82
2022/06/30 07:13:28;;;;;;;7.47;6.77;;;28.10;55.30;;;;;;5998343;23;20384;-82
2022/06/30 07:16:08;;;;;;;6.97;6.23;;;28.10;55.50;;;;;;5997772;23;20392;-82
2022/06/30 07:19:00;;;;;;;7.23;6.60;;;28.10;55.30;;;;;;6021329;23;20751;-80
2022/06/30 07:21:35;;;;;;;6.87;6.27;;;28.10;54.90;;;;;;5994484;23;20388;-81
2022/06/30 07:24:16;;;;;;;6.07;5.57;;;28.10;55.20;;;;;;5998391;23;20455;-81
2022/06/30 07:26:42;;;;;;;7.10;6.40;;;28.10;55.10;;;;;;6021754;23;20485;-81
2022/06/30 07:29:10;;;;;;;6.87;6.27;;;28.10;55.00;;;;;;6076509;23;20393;-81
2022/06/30 07:31:36;;;;;;;7.13;6.50;;;28.10;54.80;;;;;;6108726;23;20394;-81
2022/06/30 07:34:20;;;;;;;8.70;6.57;;;28.20;54.90;;;;;;6118800;23;20381;-81
2022/06/30 07:43:48;;;;;;;6.10;5.50;;;28.20;55.20;;;;;;6110279;23;20673;-81
2022/06/30 07:46:17;;;;;;;7.83;6.97;;;28.20;54.80;;;;;;5993268;24;20381;-81
2022/06/30 07:48:44;;;;;;;8.00;6.93;;;28.20;54.90;;;;;;5970487;24;20419;-81
2022/06/30 07:52:03;;;;;;;7.43;6.70;;;28.20;55.30;;;;;;5992486;23;20393;-82
2022/06/30 07:55:20;;;;;;;7.10;5.80;;;28.20;55.10;;;;;;5992069;23;20446;-81
2022/06/30 08:18:27;;;;;;;6.70;6.10;;;28.20;54.90;;;;;;5882638;24;20439;-81
2022/06/30 09:02:02;;;;;;;7.60;6.63;;;28.20;55.10;;;;;;5830091;24;20929;-82
2022/06/30 09:21:18;;;;;;;6.20;5.60;;;28.30;55.10;;;;;;5866740;24;20431;-81
2022/06/30 09:38:27;;;;;;;;;;;;;;;;;;;;;
2022/06/30 09:51:46;;;;;;;;;;;;;;;;;;;;;
2022/06/30 10:57:08;;;;;;;;;;;;;;;;;;;;;
2022/06/30 11:45:02;;;;;;;5.90;4.97;;;28.30;53.30;;;;;;5733113;25;20390;-80
2022/06/30 11:47:57;;;;;;;5.07;4.67;;;28.30;53.30;;;;;;5733300;25;20410;-81
2022/06/30 11:53:21;;;;;;;6.23;5.00;;;28.40;53.40;;;;;;5733814;25;20390;-81
2022/06/30 11:56:20;;;;;;;;;;;;;;;;;;;;;
2022/06/30 11:58:49;;;;;;;5.57;5.03;;;28.40;53.40;;;;;;5758349;25;20401;-81
2022/06/30 12:02:00;;;;;;;4.83;4.43;;;28.40;53.30;;;;;;5736723;25;20419;-81
2022/06/30 12:04:43;;;;;;;5.17;4.77;;;28.40;53.70;;;;;;5773032;24;20413;-80
2022/06/30 12:07:14;;;;;;;4.73;4.33;;;28.40;53.30;;;;;;5760140;24;20404;-81
2022/06/30 12:09:44;;;;;;;6.00;5.30;;;28.40;53.30;;;;;;5815761;24;20395;-80
2022/06/30 12:12:14;;;;;;;6.33;4.90;;;28.40;53.20;;;;;;5844893;24;20391;-80
2022/06/30 12:14:42;;;;;;;5.37;4.87;;;28.40;53.20;;;;;;5925820;24;20379;-80
2022/06/30 12:17:13;;;;;;;4.20;3.80;;;28.40;53.10;;;;;;5997030;23;20512;-80
2022/06/30 12:19:42;;;;;;;5.63;4.63;;;28.40;53.10;;;;;;6030550;23;20393;-80
2022/06/30 12:22:10;;;;;;;4.77;4.37;;;28.50;53.10;;;;;;6033098;23;20380;-81
2022/06/30 12:24:39;;;;;;;5.17;4.77;;;28.40;53.00;;;;;;6009928;23;20385;-81
2022/06/30 12:27:05;;;;;;;4.63;4.23;;;28.50;53.10;;;;;;6009445;23;20384;-80
2022/06/30 12:29:31;;;;;;;7.90;5.00;;;28.50;53.10;;;;;;6009560;23;20419;-79
2022/06/30 12:32:00;;;;;;;5.20;4.70;;;28.50;53.00;;;;;;6010738;23;20478;-80
2022/06/30 12:34:26;;;;;;;5.40;4.47;;;28.50;53.00;;;;;;6008863;23;20395;-81
2022/06/30 12:37:03;;;;;;;4.40;4.00;;;28.50;53.00;;;;;;6007229;23;20424;-81
2022/06/30 12:39:42;;;;;;;5.10;4.60;;;28.50;53.50;;;;;;6005402;23;20387;-80
2022/06/30 12:42:08;;;;;;;4.23;3.93;;;28.50;53.00;;;;;;6003813;23;20403;-80
2022/06/30 12:44:40;;;;;;;4.97;4.53;;;28.50;53.00;;;;;;6026266;23;20382;-79
2022/06/30 12:47:08;;;;;;;4.97;4.47;;;28.50;53.00;;;;;;6003330;23;20409;-80
2022/06/30 12:49:38;;;;;;;5.90;4.37;;;28.50;53.00;;;;;;6025767;23;20459;-80
2022/06/30 12:52:20;;;;;;;4.80;4.43;;;28.50;53.50;;;;;;6027092;23;20444;-80
2022/06/30 12:54:57;;;;;;;4.83;4.43;;;28.50;52.90;;;;;;6003432;23;20384;-80
2022/06/30 12:57:44;;;;;;;5.77;4.33;;;28.50;52.90;;;;;;6005639;23;20428;-80
2022/06/30 13:00:16;;;;;;;4.57;4.17;;;28.50;52.80;;;;;;6006752;23;20380;-80
2022/06/30 13:06:02;;;;;;;4.77;4.33;;;28.50;52.70;;;;;;5972204;23;20479;-81
2022/06/30 13:08:28;;;;;;;4.83;4.33;;;28.50;52.70;;;;;;6132495;23;20376;-80
2022/06/30 13:11:05;;;;;;;4.90;4.40;;;28.50;52.80;;;;;;6148950;23;20142;-82
2022/06/30 13:13:31;;;;;;;4.87;4.37;;;28.50;52.70;;;;;;6120113;23;20383;-81
2022/06/30 13:15:58;;;;;;;5.27;4.87;;;28.50;52.70;;;;;;6117722;23;20381;-82
2022/06/30 13:18:48;;;;;;;;;;;;;;;;;;;;;
2022/06/30 13:21:29;;;;;;;5.00;4.47;;;28.50;52.30;;;;;;6144470;23;20357;-82
2022/06/30 13:23:58;;;;;;;5.20;4.80;;;28.50;52.20;;;;;;6145553;23;20353;-81
2022/06/30 13:26:24;;;;;;;5.53;5.03;;;28.50;52.20;;;;;;6119602;23;20380;-82
2022/06/30 13:28:59;;;;;;;4.77;4.37;;;28.50;52.10;;;;;;6119896;23;20412;-81
2022/06/30 13:31:31;;;;;;;4.53;4.10;;;28.50;52.00;;;;;;6120286;23;20396;-81
2022/06/30 13:34:00;;;;;;;5.20;4.23;;;28.50;52.00;;;;;;6146083;23;20357;-81
2022/06/30 13:37:01;;;;;;;6.70;4.50;;;28.50;52.00;;;;;;6146916;23;20397;-82
2022/06/30 13:43:26;;;;;;;4.67;4.30;;;28.50;51.60;;;;;;6059076;23;20457;-81
2022/06/30 13:46:43;;;;;;;5.43;4.93;;;28.50;51.70;;;;;;6034363;23;20379;-81
2022/06/30 13:52:42;;;;;;;5.50;5.00;;;28.50;51.70;;;;;;6055788;23;20395;-81
2022/06/30 13:55:11;;;;;;;4.80;4.40;;;28.50;51.80;;;;;;6034674;23;21001;-82
2022/06/30 13:57:39;;;;;;;5.13;4.67;;;28.50;51.70;;;;;;6058827;23;20411;-82
2022/06/30 14:00:06;;;;;;;4.87;4.47;;;28.50;51.50;;;;;;6031831;23;20428;-83
2022/06/30 14:02:32;;;;;;;6.50;4.63;;;28.50;51.20;;;;;;6032605;23;20466;-81
2022/06/30 14:04:59;;;;;;;7.30;4.23;;;28.50;51.20;;;;;;6056430;23;20379;-81
2022/06/30 14:07:26;;;;;;;5.43;4.93;;;28.50;51.20;;;;;;6032339;23;20159;-83
2022/06/30 14:09:53;;;;;;;5.03;4.63;;;28.50;51.10;;;;;;6058481;23;20376;-82
2022/06/30 14:12:20;;;;;;;5.10;4.70;;;28.60;51.20;;;;;;6035061;23;20391;-82
2022/06/30 14:14:48;;;;;;;4.10;3.80;;;28.60;51.00;;;;;;6034881;23;20444;-82
2022/06/30 14:17:14;;;;;;;5.07;4.30;;;28.60;51.10;;;;;;6107663;23;20425;-81
2022/06/30 14:26:31;;;;;;;4.90;4.50;;;28.60;50.90;;;;;;6022035;23;20352;-84
2022/06/30 14:29:02;;;;;;;5.10;4.60;;;28.50;50.90;;;;;;5999740;23;20380;-83
2022/06/30 14:31:50;;;;;;;;;;;;;;;;;;;;;
2022/06/30 14:37:53;;;;;;;6.50;5.40;;;28.60;50.80;;;;;;5967238;24;20433;-83
2022/06/30 14:40:20;;;;;;;5.33;3.90;;;28.60;50.80;;;;;;5943432;24;20386;-83
2022/06/30 14:42:53;;;;;;;5.00;4.50;;;28.50;50.60;;;;;;5943397;24;20390;-83
2022/06/30 14:45:34;;;;;;;5.03;4.60;;;28.50;50.40;;;;;;5966729;24;20374;-83
2022/06/30 14:48:11;;;;;;;5.43;4.80;;;28.60;50.60;;;;;;5966817;24;20394;-83
2022/06/30 14:50:37;;;;;;;4.40;4.10;;;28.60;50.50;;;;;;5943972;24;20386;-83
2022/06/30 14:53:06;;;;;;;4.63;4.23;;;28.60;50.50;;;;;;5966593;24;20382;-83
2022/06/30 14:55:40;;;;;;;5.23;4.33;;;28.60;50.50;;;;;;5966433;24;20900;-82
2022/06/30 14:58:09;;;;;;;5.27;4.77;;;28.60;50.30;;;;;;5943346;24;20876;-83
2022/06/30 15:00:38;;;;;;;6.93;4.77;;;28.60;50.10;;;;;;6045873;23;20448;-83
2022/06/30 15:03:04;;;;;;;5.20;4.70;;;28.60;50.30;;;;;;6027643;23;20394;-82
2022/06/30 15:06:12;;;;;;;4.40;4.00;;;28.60;50.30;;;;;;6028211;23;20808;-82
2022/06/30 15:09:10;;;;;;;4.57;4.27;;;28.60;50.10;;;;;;6051842;23;20391;-84
2022/06/30 15:19:22;;;;;;;;;;;;;;;;;;;;;
2022/06/30 15:28:10;;;;;;;9.67;5.00;;;28.60;50.10;;;;;;6140893;23;20435;-81
2022/06/30 15:37:42;;;;;;;5.97;3.93;;;28.60;50.10;;;;;;6136332;23;20428;-82
2022/06/30 15:40:15;;;;;;;4.73;4.33;;;28.60;50.20;;;;;;6108125;23;20443;-82
2022/06/30 15:50:11;;;;;;;8.40;4.90;;;28.70;50.30;;;;;;5966374;24;20486;-83
2022/06/30 15:52:39;;;;;;;4.80;4.50;;;28.70;50.30;;;;;;5966999;24;20394;-83
2022/06/30 15:55:05;;;;;;;4.70;4.30;;;28.60;50.10;;;;;;5966437;24;20401;-83
2022/06/30 15:57:40;;;;;;;4.87;4.47;;;28.60;50.00;;;;;;5967483;24;20426;-83
2022/06/30 16:00:09;;;;;;;4.60;4.17;;;28.70;50.10;;;;;;5943845;24;20400;-83
2022/06/30 16:03:18;;;;;;;4.37;4.00;;;28.70;49.90;;;;;;5967226;24;20890;-83
2022/06/30 16:05:44;;;;;;;7.37;4.57;;;28.70;49.90;;;;;;5971474;24;20774;-83
2022/06/30 16:08:12;;;;;;;5.17;4.67;;;28.70;49.70;;;;;;5966654;24;20410;-84
2022/06/30 16:10:43;;;;;;;5.30;4.80;;;28.70;49.60;;;;;;5966635;24;20379;-83
2022/06/30 16:13:12;;;;;;;4.80;4.50;;;28.70;49.70;;;;;;5967812;24;20409;-83
2022/06/30 16:15:38;;;;;;;5.27;4.47;;;28.70;49.70;;;;;;5978336;23;20404;-83
2022/06/30 16:18:29;;;;;;;5.70;4.63;;;28.70;49.60;;;;;;5999715;23;20502;-83
2022/06/30 16:20:56;;;;;;;5.73;5.13;;;28.70;49.60;;;;;;5999680;23;20220;-83
2022/06/30 16:23:24;;;;;;;5.20;4.70;;;28.70;49.40;;;;;;6123107;23;20405;-83
2022/06/30 16:25:50;;;;;;;5.50;5.00;;;28.70;49.20;;;;;;6140900;23;20397;-82
2022/06/30 16:28:19;;;;;;;8.53;5.57;;;28.70;49.10;;;;;;6116219;23;20696;-83
2022/06/30 16:47:35;;;;;;;6.37;5.20;;;28.70;49.50;;;;;;5995867;24;20748;-83
2022/06/30 16:50:03;;;;;;;5.07;4.47;;;28.70;49.60;;;;;;5971416;24;20397;-83
2022/06/30 16:53:49;;;;;;;;;;;;;;;;;;;;;
2022/06/30 17:10:19;;;;;;;6.50;4.40;;;28.80;50.00;;;;;;5806377;24;20938;-83
2022/06/30 17:35:52;;;;;;;5.67;4.53;;;28.80;50.20;;;;;;5945277;24;20830;-82
2022/06/30 20:16:34;;;;;;;;;;;;;;;;;;;;;
2022/06/30 21:10:53;;;;;;;4.57;4.17;;;28.80;51.40;;;;;;5998110;23;20770;-82
2022/06/30 21:17:19;;;;;;;5.03;4.53;;;28.80;51.40;;;;;;5951425;24;20429;-83
2022/06/30 23:17:06;;;;;;;4.10;3.80;;;28.70;51.40;;;;;;5889273;24;20446;-84
2022/06/30 23:22:57;;;;;;;5.20;4.70;;;28.70;51.40;;;;;;5915437;24;20390;-84
2022/06/30 23:25:25;;;;;;;4.50;4.10;;;28.80;51.50;;;;;;5915732;24;20400;-83
2022/06/30 23:31:14;;;;;;;4.73;4.27;;;28.70;51.30;;;;;;6026898;23;20363;-83
2022/06/30 23:33:40;;;;;;;4.70;4.40;;;28.70;51.40;;;;;;6033404;23;20398;-83
2022/06/30 23:36:06;;;;;;;4.13;3.83;;;28.80;51.40;;;;;;6083788;23;20455;-83
2022/06/30 23:38:33;;;;;;;4.50;4.10;;;28.80;51.40;;;;;;6085014;23;20434;-83
2022/06/30 23:40:59;;;;;;;4.53;4.13;;;28.80;51.40;;;;;;6084223;23;20390;-84
2022/06/30 23:43:27;;;;;;;5.43;4.03;;;28.80;51.30;;;;;;6100494;23;20410;-84
2022/06/30 23:45:54;;;;;;;4.57;4.17;;;28.80;51.30;;;;;;6113878;23;20153;-84
2022/06/30 23:48:23;;;;;;;4.73;4.33;;;28.80;51.30;;;;;;6089891;23;20394;-84
2022/06/30 23:50:49;;;;;;;4.27;3.97;;;28.80;51.30;;;;;;6108009;23;20844;-84
2022/06/30 23:53:15;;;;;;;4.37;4.00;;;28.80;51.30;;;;;;6119013;23;20419;-84
2022/06/30 23:55:43;;;;;;;4.37;4.03;;;28.80;51.30;;;;;;6119725;23;20492;-84
2022/06/30 23:58:10;;;;;;;4.10;3.80;;;28.90;51.30;;;;;;6145807;23;20181;-84
